Time;durP1;ratioP1;P1;durP2;ratioP2;P2;SDS_P1;SDS_P2;PMS_P1;PMS_P2;Temp;Humidity;BMP_temperature;BMP_pressure;BME280_temperature;BME280_humidity;BME280_pressure;Samples;Min_cycle;Max_cycle;Signal;HPM_P1;HPM_P2
2022/08/10 00:02:38;;;;;;;3.10;2.47;;;;;;;;;;1706725;84;21093;-63
2022/08/10 00:05:05;;;;;;;3.85;2.50;;;;;;;;;;1702244;84;21073;-61
2022/08/10 00:07:31;;;;;;;3.17;2.37;;;;;;;;;;1705081;84;21053;-63
2022/08/10 00:09:58;;;;;;;3.95;2.62;;;;;;;;;;1705023;84;21089;-61
2022/08/10 00:12:24;;;;;;;3.47;2.70;;;;;;;;;;1709117;84;21077;-61
2022/08/10 00:14:50;;;;;;;3.27;2.35;;;;;;;;;;1708181;84;21089;-62
2022/08/10 00:17:16;;;;;;;3.00;2.42;;;;;;;;;;1704765;84;21076;-61
2022/08/10 00:19:42;;;;;;;3.17;2.30;;;;;;;;;;1709048;84;21073;-61
2022/08/10 00:22:10;;;;;;;3.70;2.47;;;;;;;;;;1706476;84;21080;-61
2022/08/10 00:24:37;;;;;;;3.52;2.55;;;;;;;;;;1703860;84;21540;-61
2022/08/10 00:27:03;;;;;;;4.90;3.12;;;;;;;;;;1712258;83;21065;-61
2022/08/10 00:29:30;;;;;;;6.03;3.47;;;;;;;;;;1706202;84;21632;-61
2022/08/10 00:31:56;;;;;;;7.37;4.25;;;;;;;;;;1705859;84;21041;-61
2022/08/10 00:34:22;;;;;;;5.42;3.60;;;;;;;;;;1706639;84;21085;-61
2022/08/10 00:36:48;;;;;;;5.95;3.80;;;;;;;;;;1708545;83;21045;-61
2022/08/10 00:39:14;;;;;;;7.10;3.80;;;;;;;;;;1714008;83;21185;-61
2022/08/10 00:41:41;;;;;;;7.87;4.67;;;;;;;;;;1709747;83;21108;-61
2022/08/10 00:44:07;;;;;;;9.50;5.33;;;;;;;;;;1707727;84;21041;-61
2022/08/10 00:46:33;;;;;;;10.13;5.15;;;;;;;;;;1712043;83;21065;-61
2022/08/10 00:48:59;;;;;;;10.40;4.92;;;;;;;;;;1710692;83;21006;-61
2022/08/10 00:51:25;;;;;;;10.98;5.47;;;;;;;;;;1707964;83;21045;-61
2022/08/10 00:53:51;;;;;;;10.10;5.70;;;;;;;;;;1714600;83;21592;-61
2022/08/10 00:56:17;;;;;;;9.65;5.10;;;;;;;;;;1709723;83;21049;-61
2022/08/10 00:58:44;;;;;;;10.40;5.50;;;;;;;;;;1716723;83;21196;-61
2022/08/10 01:04:00;;;;;;;11.38;5.00;;;;;;;;;;1723565;80;72844;-60
2022/08/10 01:06:38;;;;;;;8.98;4.75;;;;;;;;;;1726195;81;20997;-60
2022/08/10 01:09:06;;;;;;;6.92;4.25;;;;;;;;;;1725552;83;21766;-60
2022/08/10 01:11:34;;;;;;;6.50;3.87;;;;;;;;;;1731030;82;21093;-60
2022/08/10 01:14:02;;;;;;;8.00;4.20;;;;;;;;;;1730653;83;21064;-61
2022/08/10 01:16:30;;;;;;;5.03;3.40;;;;;;;;;;1728610;83;21048;-61
2022/08/10 01:18:58;;;;;;;6.78;3.95;;;;;;;;;;1728206;83;21008;-61
2022/08/10 01:21:30;;;;;;;6.92;4.37;;;;;;;;;;1730360;83;21055;-61
2022/08/10 01:23:57;;;;;;;7.83;4.33;;;;;;;;;;1730112;83;21060;-61
2022/08/10 01:26:38;;;;;;;10.88;4.28;;;;;;;;;;1729316;83;20991;-61
2022/08/10 01:29:22;;;;;;;7.75;4.53;;;;;;;;;;1710572;83;21099;-61
2022/08/10 01:31:49;;;;;;;8.00;4.72;;;;;;;;;;1714557;83;22013;-62
2022/08/10 01:34:17;;;;;;;5.65;4.22;;;;;;;;;;1689886;84;21068;-62
2022/08/10 01:36:45;;;;;;;6.00;3.80;;;;;;;;;;1664991;86;21032;-62
2022/08/10 01:39:12;;;;;;;4.92;3.80;;;;;;;;;;1652585;86;21120;-62
2022/08/10 01:41:40;;;;;;;5.78;3.70;;;;;;;;;;1647280;86;21589;-63
2022/08/10 01:44:14;;;;;;;6.25;4.58;;;;;;;;;;1666692;86;21037;-63
2022/08/10 01:46:41;;;;;;;7.55;3.87;;;;;;;;;;1662743;86;21261;-60
2022/08/10 01:49:07;;;;;;;5.55;3.25;;;;;;;;;;1665242;86;21084;-60
2022/08/10 01:51:36;;;;;;;3.62;2.77;;;;;;;;;;1662859;85;21093;-60
2022/08/10 01:54:03;;;;;;;3.33;2.77;;;;;;;;;;1681812;84;21069;-61
2022/08/10 01:56:30;;;;;;;4.35;3.12;;;;;;;;;;1665460;86;21077;-61
2022/08/10 01:58:57;;;;;;;4.75;3.05;;;;;;;;;;1694264;84;21134;-61
2022/08/10 02:01:24;;;;;;;4.65;3.15;;;;;;;;;;1695455;84;21033;-61
2022/08/10 02:03:52;;;;;;;3.92;2.83;;;;;;;;;;1691968;83;22166;-61
2022/08/10 02:06:18;;;;;;;3.80;2.62;;;;;;;;;;1683738;84;21053;-60
2022/08/10 02:08:44;;;;;;;5.20;2.70;;;;;;;;;;1694982;84;21087;-61
2022/08/10 02:11:11;;;;;;;5.15;2.60;;;;;;;;;;1692552;84;21067;-61
2022/08/10 02:13:38;;;;;;;3.35;2.62;;;;;;;;;;1670392;84;21056;-61
2022/08/10 02:16:04;;;;;;;3.02;2.50;;;;;;;;;;1695809;84;21080;-61
2022/08/10 02:18:31;;;;;;;4.03;2.90;;;;;;;;;;1692833;84;21499;-60
2022/08/10 02:20:57;;;;;;;5.35;3.08;;;;;;;;;;1693947;84;21077;-61
2022/08/10 02:23:30;;;;;;;5.80;3.35;;;;;;;;;;1692418;84;21063;-61
2022/08/10 02:25:57;;;;;;;5.87;3.65;;;;;;;;;;1688788;84;21048;-61
2022/08/10 02:28:24;;;;;;;6.85;3.83;;;;;;;;;;1695880;84;21080;-61
2022/08/10 02:30:52;;;;;;;7.15;3.60;;;;;;;;;;1693011;84;21094;-61
2022/08/10 02:33:19;;;;;;;7.20;4.40;;;;;;;;;;1691165;84;21075;-60
2022/08/10 02:35:45;;;;;;;7.85;4.65;;;;;;;;;;1691269;84;21063;-61
2022/08/10 02:38:11;;;;;;;7.17;3.80;;;;;;;;;;1670615;84;21532;-61
2022/08/10 02:40:39;;;;;;;6.58;3.75;;;;;;;;;;1695787;84;21104;-61
2022/08/10 02:43:07;;;;;;;7.53;4.20;;;;;;;;;;1695542;84;21076;-61
2022/08/10 02:45:43;;;;;;;7.87;4.75;;;;;;;;;;1693023;84;21106;-61
2022/08/10 02:48:11;;;;;;;7.15;3.65;;;;;;;;;;1692535;84;21036;-61
2022/08/10 02:50:38;;;;;;;4.00;2.92;;;;;;;;;;1692237;84;21112;-61
2022/08/10 02:53:18;;;;;;;3.98;3.10;;;;;;;;;;1695678;84;21092;-61
2022/08/10 02:55:46;;;;;;;5.28;3.40;;;;;;;;;;1692116;84;21083;-61
2022/08/10 02:58:16;;;;;;;4.75;3.20;;;;;;;;;;1693721;84;21123;-62
2022/08/10 03:00:46;;;;;;;4.97;3.42;;;;;;;;;;1694095;84;21060;-62
2022/08/10 03:03:13;;;;;;;6.70;3.98;;;;;;;;;;1696179;84;21155;-62
2022/08/10 03:05:39;;;;;;;7.03;4.47;;;;;;;;;;1693485;84;21084;-62
2022/08/10 03:08:06;;;;;;;10.15;5.47;;;;;;;;;;1692856;85;21107;-62
2022/08/10 03:10:33;;;;;;;10.08;5.58;;;;;;;;;;1693069;83;21080;-63
2022/08/10 03:12:59;;;;;;;9.15;5.35;;;;;;;;;;1691293;85;21047;-62
2022/08/10 03:15:29;;;;;;;9.13;4.08;;;;;;;;;;1687394;85;21066;-62
2022/08/10 03:17:55;;;;;;;8.98;4.67;;;;;;;;;;1689217;85;21076;-62
2022/08/10 03:20:21;;;;;;;9.90;4.65;;;;;;;;;;1690829;85;21027;-62
2022/08/10 03:22:50;;;;;;;6.40;3.67;;;;;;;;;;1690403;85;21623;-62
2022/08/10 03:25:18;;;;;;;6.08;3.80;;;;;;;;;;1675480;85;21054;-62
2022/08/10 03:27:44;;;;;;;4.37;3.37;;;;;;;;;;1688709;85;21015;-62
2022/08/10 03:30:11;;;;;;;5.47;2.90;;;;;;;;;;1689425;85;20971;-62
2022/08/10 03:32:37;;;;;;;4.62;3.05;;;;;;;;;;1689855;85;21607;-62
2022/08/10 03:35:05;;;;;;;5.15;3.33;;;;;;;;;;1693438;85;21107;-62
2022/08/10 03:37:31;;;;;;;4.70;3.12;;;;;;;;;;1689577;85;21566;-62
2022/08/10 03:39:57;;;;;;;4.25;3.25;;;;;;;;;;1687749;85;21050;-61
2022/08/10 03:42:23;;;;;;;5.10;3.12;;;;;;;;;;1691917;85;21072;-62
2022/08/10 03:44:49;;;;;;;4.95;3.08;;;;;;;;;;1692717;85;21068;-62
2022/08/10 03:47:16;;;;;;;5.20;3.20;;;;;;;;;;1689677;85;21119;-62
2022/08/10 03:49:42;;;;;;;3.08;2.72;;;;;;;;;;1693459;85;21516;-62
2022/08/10 03:52:09;;;;;;;3.52;2.85;;;;;;;;;;1688741;85;21103;-62
2022/08/10 03:54:35;;;;;;;4.40;2.90;;;;;;;;;;1691707;85;21060;-61
2022/08/10 03:57:02;;;;;;;5.78;2.90;;;;;;;;;;1675390;85;21047;-62
2022/08/10 03:59:30;;;;;;;4.97;3.05;;;;;;;;;;1664510;85;21029;-62
2022/08/10 04:01:56;;;;;;;7.17;3.00;;;;;;;;;;1695822;84;21564;-62
2022/08/10 04:04:22;;;;;;;4.97;3.50;;;;;;;;;;1691079;83;21074;-62
2022/08/10 04:06:49;;;;;;;5.50;3.62;;;;;;;;;;1688355;83;20984;-62
2022/08/10 04:09:15;;;;;;;5.78;3.30;;;;;;;;;;1724137;83;21551;-61
2022/08/10 04:11:42;;;;;;;4.28;3.42;;;;;;;;;;1682217;84;21059;-62
2022/08/10 04:14:08;;;;;;;3.52;3.08;;;;;;;;;;1719013;83;21000;-63
2022/08/10 04:16:34;;;;;;;5.65;3.55;;;;;;;;;;1731943;83;21020;-63
2022/08/10 04:19:01;;;;;;;4.33;3.40;;;;;;;;;;1731690;83;21067;-62
2022/08/10 04:21:29;;;;;;;5.42;3.25;;;;;;;;;;1732115;83;21078;-62
2022/08/10 04:23:56;;;;;;;4.22;3.35;;;;;;;;;;1730838;83;21016;-62
2022/08/10 04:26:22;;;;;;;4.78;3.00;;;;;;;;;;1732270;83;21044;-62
2022/08/10 04:28:48;;;;;;;4.83;3.12;;;;;;;;;;1732808;83;21044;-62
2022/08/10 04:31:14;;;;;;;5.42;3.42;;;;;;;;;;1733535;83;21032;-61
2022/08/10 04:33:41;;;;;;;4.65;3.15;;;;;;;;;;1731094;81;21036;-62
2022/08/10 04:36:08;;;;;;;4.37;3.00;;;;;;;;;;1732291;83;21067;-61
2022/08/10 04:38:34;;;;;;;3.60;3.05;;;;;;;;;;1732357;83;21020;-61
2022/08/10 04:41:00;;;;;;;5.55;3.37;;;;;;;;;;1732027;83;21095;-61
2022/08/10 04:43:27;;;;;;;7.05;3.02;;;;;;;;;;1732597;83;21094;-62
2022/08/10 04:45:52;;;;;;;3.37;2.98;;;;;;;;;;1733851;83;20985;-61
2022/08/10 04:48:20;;;;;;;4.28;3.30;;;;;;;;;;1734008;83;21048;-61
2022/08/10 04:50:46;;;;;;;5.03;2.83;;;;;;;;;;1733946;83;21480;-61
2022/08/10 04:53:12;;;;;;;3.85;2.85;;;;;;;;;;1731485;83;21590;-62
2022/08/10 04:55:38;;;;;;;3.98;3.10;;;;;;;;;;1741126;80;21041;-63
2022/08/10 04:58:08;;;;;;;4.37;2.90;;;;;;;;;;1749148;80;21028;-61
2022/08/10 05:00:34;;;;;;;4.85;2.92;;;;;;;;;;1736878;82;21037;-62
2022/08/10 05:03:00;;;;;;;5.53;2.90;;;;;;;;;;1751242;80;21084;-62
2022/08/10 05:05:27;;;;;;;4.90;2.90;;;;;;;;;;1750970;81;21028;-62
2022/08/10 05:07:52;;;;;;;4.67;3.05;;;;;;;;;;1735892;82;21496;-62
2022/08/10 05:10:18;;;;;;;4.87;3.00;;;;;;;;;;1733512;82;21534;-61
2022/08/10 05:12:45;;;;;;;5.47;3.87;;;;;;;;;;1731345;82;21052;-62
2022/08/10 05:15:13;;;;;;;6.20;3.33;;;;;;;;;;1729431;83;21542;-62
2022/08/10 05:17:40;;;;;;;8.55;3.25;;;;;;;;;;1728454;83;21005;-61
2022/08/10 05:20:07;;;;;;;6.85;3.20;;;;;;;;;;1736989;82;21045;-62
2022/08/10 05:22:36;;;;;;;3.70;2.98;;;;;;;;;;1721908;81;21510;-62
2022/08/10 05:25:03;;;;;;;11.95;3.80;;;;;;;;;;1722499;83;21029;-62
2022/08/10 05:27:30;;;;;;;5.10;3.67;;;;;;;;;;1728195;83;21062;-62
2022/08/10 05:29:56;;;;;;;7.03;3.85;;;;;;;;;;1726601;83;21123;-62
2022/08/10 05:32:22;;;;;;;8.10;4.15;;;;;;;;;;1733236;82;21009;-61
2022/08/10 05:34:48;;;;;;;4.80;3.90;;;;;;;;;;1737310;82;21098;-61
2022/08/10 05:37:14;;;;;;;5.67;3.95;;;;;;;;;;1733914;82;21540;-61
2022/08/10 05:39:41;;;;;;;7.45;4.28;;;;;;;;;;1734544;81;21649;-61
2022/08/10 05:42:07;;;;;;;5.72;4.00;;;;;;;;;;1734798;81;20990;-60
2022/08/10 05:44:33;;;;;;;5.15;3.40;;;;;;;;;;1733368;82;21094;-61
2022/08/10 05:46:59;;;;;;;4.50;3.42;;;;;;;;;;1734074;82;21106;-60
2022/08/10 05:49:25;;;;;;;4.37;2.95;;;;;;;;;;1731125;82;21530;-61
2022/08/10 05:51:52;;;;;;;4.60;2.95;;;;;;;;;;1733525;82;21047;-61
2022/08/10 05:54:18;;;;;;;5.62;3.30;;;;;;;;;;1738110;82;21092;-60
2022/08/10 05:56:45;;;;;;;5.05;3.50;;;;;;;;;;1737090;82;21055;-59
2022/08/10 05:59:12;;;;;;;5.92;3.47;;;;;;;;;;1729373;82;21523;-61
2022/08/10 06:01:39;;;;;;;5.30;3.55;;;;;;;;;;1735659;81;21581;-61
2022/08/10 06:04:05;;;;;;;5.65;4.03;;;;;;;;;;1727127;81;21599;-63
2022/08/10 06:06:32;;;;;;;6.35;3.58;;;;;;;;;;1732574;81;21097;-62
2022/08/10 06:08:58;;;;;;;4.97;3.55;;;;;;;;;;1732816;81;21071;-63
2022/08/10 06:11:24;;;;;;;5.55;4.00;;;;;;;;;;1736640;81;21037;-62
2022/08/10 06:16:35;;;;;;;9.15;5.10;;;;;;;;;;1662671;85;21695;-61
2022/08/10 06:19:01;;;;;;;7.62;4.53;;;;;;;;;;1674189;85;21061;-61
2022/08/10 06:21:28;;;;;;;9.18;4.62;;;;;;;;;;1691253;83;21047;-62
2022/08/10 06:23:54;;;;;;;10.15;5.03;;;;;;;;;;1692759;84;21036;-61
2022/08/10 06:26:20;;;;;;;7.75;4.55;;;;;;;;;;1689985;84;21029;-63
2022/08/10 06:28:51;;;;;;;7.97;4.22;;;;;;;;;;1662011;86;22311;-63
2022/08/10 06:31:17;;;;;;;8.05;4.10;;;;;;;;;;1692698;83;21051;-64
2022/08/10 06:33:43;;;;;;;8.28;3.95;;;;;;;;;;1656213;85;21024;-65
2022/08/10 06:36:10;;;;;;;8.53;4.65;;;;;;;;;;1696562;84;21057;-64
2022/08/10 06:38:37;;;;;;;9.23;4.78;;;;;;;;;;1700413;83;21039;-63
2022/08/10 06:41:05;;;;;;;7.53;4.30;;;;;;;;;;1695565;83;21023;-65
2022/08/10 06:43:32;;;;;;;4.97;3.60;;;;;;;;;;1692256;83;21562;-63
2022/08/10 06:46:02;;;;;;;7.55;3.70;;;;;;;;;;1686220;84;21034;-63
2022/08/10 06:48:32;;;;;;;8.70;4.75;;;;;;;;;;1664018;84;21032;-63
2022/08/10 06:51:00;;;;;;;7.50;4.22;;;;;;;;;;1664442;85;21056;-62
2022/08/10 06:53:30;;;;;;;6.05;4.00;;;;;;;;;;1693835;84;21580;-62
2022/08/10 06:56:03;;;;;;;7.22;4.40;;;;;;;;;;1662621;85;21076;-62
2022/08/10 06:58:37;;;;;;;6.25;4.40;;;;;;;;;;1687386;84;21033;-61
2022/08/10 07:01:07;;;;;;;6.30;4.60;;;;;;;;;;1682845;84;21108;-63
2022/08/10 07:03:42;;;;;;;6.00;3.55;;;;;;;;;;1693856;84;21154;-63
2022/08/10 07:06:09;;;;;;;5.03;3.40;;;;;;;;;;1670137;84;21642;-63
2022/08/10 07:08:35;;;;;;;7.15;4.33;;;;;;;;;;1682992;84;21100;-62
2022/08/10 07:11:02;;;;;;;6.47;3.80;;;;;;;;;;1673554;85;21067;-62
2022/08/10 07:13:29;;;;;;;6.50;4.00;;;;;;;;;;1690028;84;21569;-63
2022/08/10 07:15:55;;;;;;;7.25;3.87;;;;;;;;;;1685935;84;21087;-62
2022/08/10 07:18:22;;;;;;;6.33;4.00;;;;;;;;;;1712285;83;21060;-61
2022/08/10 07:20:48;;;;;;;4.65;3.80;;;;;;;;;;1715505;82;21547;-61
2022/08/10 07:23:14;;;;;;;5.17;3.87;;;;;;;;;;1699028;84;21093;-61
2022/08/10 07:25:40;;;;;;;5.17;3.75;;;;;;;;;;1683576;84;21020;-61
2022/08/10 07:28:07;;;;;;;6.37;4.50;;;;;;;;;;1707409;82;20972;-60
2022/08/10 07:30:37;;;;;;;6.08;4.40;;;;;;;;;;1708566;84;21077;-61
2022/08/10 07:33:03;;;;;;;4.22;3.10;;;;;;;;;;1715525;82;21038;-62
2022/08/10 07:35:30;;;;;;;4.92;3.30;;;;;;;;;;1723827;82;21074;-62
2022/08/10 07:37:56;;;;;;;4.35;2.90;;;;;;;;;;1687099;84;21016;-62
2022/08/10 07:40:23;;;;;;;4.65;2.98;;;;;;;;;;1738716;82;21076;-61
2022/08/10 07:42:52;;;;;;;4.33;2.98;;;;;;;;;;1683980;84;21052;-64
2022/08/10 07:45:19;;;;;;;3.72;3.02;;;;;;;;;;1696296;82;21062;-61
2022/08/10 07:47:49;;;;;;;5.45;3.10;;;;;;;;;;1650450;87;21142;-61
2022/08/10 07:52:54;;;;;;;5.70;3.42;;;;;;;;;;1809379;78;22466;-61
2022/08/10 07:55:20;;;;;;;3.42;3.12;;;;;;;;;;1770685;80;21055;-61
2022/08/10 07:57:47;;;;;;;3.70;3.10;;;;;;;;;;1775660;80;21527;-61
2022/08/10 08:00:14;;;;;;;26.90;23.87;;;;;;;;;;1768337;80;21036;-61
2022/08/10 08:02:42;;;;;;;35.52;25.92;;;;;;;;;;1768148;80;21079;-61
2022/08/10 08:05:09;;;;;;;39.15;31.20;;;;;;;;;;1762484;80;21032;-61
2022/08/10 08:07:38;;;;;;;8.63;5.30;;;;;;;;;;1778000;80;21083;-63
2022/08/10 08:10:05;;;;;;;6.33;3.50;;;;;;;;;;1769256;80;21066;-64
2022/08/10 08:12:32;;;;;;;4.92;3.67;;;;;;;;;;1756966;80;20997;-66
2022/08/10 08:14:58;;;;;;;6.83;3.22;;;;;;;;;;1775340;80;21485;-66
2022/08/10 08:17:25;;;;;;;4.75;3.50;;;;;;;;;;1761735;80;20997;-66
2022/08/10 08:19:53;;;;;;;7.00;3.67;;;;;;;;;;1762140;80;21068;-68
2022/08/10 08:22:19;;;;;;;8.08;3.65;;;;;;;;;;1765010;80;21495;-68
2022/08/10 08:24:46;;;;;;;5.12;3.77;;;;;;;;;;1772403;80;21003;-66
2022/08/10 08:27:14;;;;;;;5.65;3.37;;;;;;;;;;1769174;80;21014;-67
2022/08/10 08:29:41;;;;;;;4.60;3.45;;;;;;;;;;1763324;80;21013;-67
2022/08/10 08:32:08;;;;;;;3.85;3.25;;;;;;;;;;1761597;80;21535;-67
2022/08/10 08:34:36;;;;;;;3.75;3.08;;;;;;;;;;1772881;80;21025;-67
2022/08/10 08:37:02;;;;;;;4.12;3.10;;;;;;;;;;1770762;80;21609;-67
2022/08/10 08:39:30;;;;;;;4.17;3.47;;;;;;;;;;1760017;80;21035;-67
2022/08/10 08:42:01;;;;;;;7.50;3.33;;;;;;;;;;1761248;80;21024;-67
2022/08/10 08:44:35;;;;;;;3.85;3.17;;;;;;;;;;1764218;80;21028;-66
2022/08/10 08:47:03;;;;;;;4.05;3.20;;;;;;;;;;1761924;80;21516;-67
2022/08/10 08:49:35;;;;;;;3.62;3.10;;;;;;;;;;1764864;80;21551;-68
2022/08/10 08:52:06;;;;;;;4.42;3.40;;;;;;;;;;1756839;80;21836;-65
2022/08/10 08:54:45;;;;;;;3.83;2.98;;;;;;;;;;1756103;80;20956;-65
2022/08/10 08:57:30;;;;;;;3.90;3.05;;;;;;;;;;1754689;80;21064;-66
2022/08/10 09:00:01;;;;;;;3.75;3.08;;;;;;;;;;1747148;81;21068;-65
2022/08/10 09:02:38;;;;;;;4.37;3.60;;;;;;;;;;1729376;81;21037;-64
2022/08/10 09:05:24;;;;;;;5.00;3.05;;;;;;;;;;1741778;81;21068;-64
2022/08/10 09:07:58;;;;;;;4.87;3.30;;;;;;;;;;1754564;80;21096;-65
2022/08/10 09:10:27;;;;;;;4.67;3.40;;;;;;;;;;1730428;82;21632;-64
2022/08/10 09:12:55;;;;;;;4.92;3.27;;;;;;;;;;1747499;82;21045;-63
2022/08/10 09:15:41;;;;;;;7.20;3.33;;;;;;;;;;1747864;81;21029;-65
2022/08/10 09:18:19;;;;;;;4.58;3.45;;;;;;;;;;1741966;82;21628;-64
2022/08/10 09:20:46;;;;;;;5.72;3.65;;;;;;;;;;1746672;81;21041;-63
2022/08/10 09:23:14;;;;;;;7.62;3.75;;;;;;;;;;1748427;81;21072;-63
2022/08/10 09:25:44;;;;;;;4.33;3.10;;;;;;;;;;1747309;81;21022;-65
2022/08/10 09:28:12;;;;;;;5.33;3.45;;;;;;;;;;1749155;80;21057;-63
2022/08/10 09:30:52;;;;;;;4.20;3.42;;;;;;;;;;1743522;82;21018;-63
2022/08/10 09:33:20;;;;;;;4.83;3.27;;;;;;;;;;1729445;82;21049;-63
2022/08/10 09:35:54;;;;;;;15.58;13.78;;;;;;;;;;1741513;81;21044;-61
2022/08/10 09:38:22;;;;;;;14.58;10.18;;;;;;;;;;1746524;82;21084;-60
2022/08/10 09:40:49;;;;;;;17.07;13.62;;;;;;;;;;1755775;81;21013;-60
2022/08/10 09:43:26;;;;;;;7.65;6.00;;;;;;;;;;1715470;83;21036;-62
2022/08/10 09:45:54;;;;;;;9.73;6.33;;;;;;;;;;1738623;81;21044;-62
2022/08/10 09:48:28;;;;;;;5.10;4.55;;;;;;;;;;1738756;81;21062;-62
2022/08/10 09:51:08;;;;;;;4.37;3.33;;;;;;;;;;1745055;81;21596;-62
2022/08/10 09:53:39;;;;;;;4.92;3.33;;;;;;;;;;1744366;81;21051;-62
2022/08/10 09:56:24;;;;;;;4.60;3.55;;;;;;;;;;1751410;81;22154;-63
2022/08/10 09:59:09;;;;;;;4.22;3.27;;;;;;;;;;1749748;81;21018;-63
2022/08/10 10:01:39;;;;;;;4.20;3.45;;;;;;;;;;1747185;81;21099;-63
2022/08/10 10:04:16;;;;;;;5.75;3.58;;;;;;;;;;1746363;81;21554;-64
2022/08/10 10:06:50;;;;;;;4.08;3.40;;;;;;;;;;1746410;81;20982;-63
2022/08/10 10:09:26;;;;;;;4.35;3.60;;;;;;;;;;1748626;81;21104;-62
2022/08/10 10:11:57;;;;;;;4.40;3.62;;;;;;;;;;1740867;81;21509;-63
2022/08/10 10:15:18;;;;;;;5.90;4.03;;;;;;;;;;1737084;81;21017;-62
2022/08/10 10:17:06;;;;;;;4.58;3.95;;;;;;;;;;1742485;81;21021;-62
2022/08/10 10:19:43;;;;;;;4.75;3.65;;;;;;;;;;1751945;81;21005;-63
2022/08/10 10:22:22;;;;;;;4.55;3.65;;;;;;;;;;1751198;81;21045;-63
2022/08/10 10:24:46;;;;;;;4.15;3.70;;;;;;;;;;1743228;81;21189;-64
2022/08/10 10:27:14;;;;;;;5.12;3.98;;;;;;;;;;1747848;81;20950;-63
2022/08/10 10:29:48;;;;;;;4.85;3.80;;;;;;;;;;1750453;81;21485;-64
2022/08/10 10:32:16;;;;;;;4.20;3.45;;;;;;;;;;1723663;82;21210;-63
2022/08/10 10:34:59;;;;;;;4.53;3.60;;;;;;;;;;1746337;81;21474;-64
2022/08/10 10:37:25;;;;;;;4.33;3.92;;;;;;;;;;1751273;81;21068;-63
2022/08/10 10:39:52;;;;;;;7.70;3.77;;;;;;;;;;1752230;81;21487;-63
2022/08/10 10:42:32;;;;;;;4.55;3.75;;;;;;;;;;1748211;81;21092;-63
2022/08/10 10:45:06;;;;;;;4.37;3.92;;;;;;;;;;1750269;81;21025;-63
2022/08/10 10:47:50;;;;;;;5.03;3.75;;;;;;;;;;1731705;81;21115;-62
2022/08/10 10:50:34;;;;;;;4.70;3.55;;;;;;;;;;1749407;81;21060;-64
2022/08/10 10:53:03;;;;;;;6.15;5.20;;;;;;;;;;1748638;80;21068;-63
2022/08/10 10:55:31;;;;;;;6.67;5.62;;;;;;;;;;1756827;80;21500;-64
2022/08/10 10:58:02;;;;;;;5.03;4.10;;;;;;;;;;1750786;80;21602;-63
2022/08/10 11:00:30;;;;;;;4.28;3.67;;;;;;;;;;1764707;80;21086;-63
2022/08/10 11:02:58;;;;;;;5.72;4.45;;;;;;;;;;1765805;80;21588;-63
2022/08/10 11:05:26;;;;;;;4.45;4.00;;;;;;;;;;1757857;80;21024;-63
2022/08/10 11:07:54;;;;;;;8.20;3.90;;;;;;;;;;1758586;80;22211;-63
2022/08/10 11:10:24;;;;;;;5.40;3.72;;;;;;;;;;1760951;80;21063;-64
2022/08/10 11:13:10;;;;;;;5.65;3.75;;;;;;;;;;1765916;81;21052;-63
2022/08/10 11:15:37;;;;;;;4.47;3.98;;;;;;;;;;1757063;80;21102;-63
2022/08/10 11:18:22;;;;;;;7.15;3.60;;;;;;;;;;1707316;82;21129;-63
2022/08/10 11:20:53;;;;;;;6.47;3.22;;;;;;;;;;1712747;82;21985;-63
2022/08/10 11:23:21;;;;;;;5.85;3.80;;;;;;;;;;1685876;82;21670;-63
2022/08/10 11:25:49;;;;;;;9.50;4.30;;;;;;;;;;1715302;82;21056;-63
2022/08/10 11:28:20;;;;;;;5.45;3.95;;;;;;;;;;1699762;84;21037;-63
2022/08/10 11:30:48;;;;;;;7.50;4.15;;;;;;;;;;1697354;83;21863;-64
2022/08/10 11:33:33;;;;;;;6.00;3.98;;;;;;;;;;1696443;84;21144;-64
2022/08/10 11:36:01;;;;;;;6.75;4.00;;;;;;;;;;1703286;84;21073;-64
2022/08/10 11:38:46;;;;;;;5.87;4.12;;;;;;;;;;1699082;83;22197;-64
2022/08/10 11:41:19;;;;;;;6.10;4.65;;;;;;;;;;1721677;82;21060;-62
2022/08/10 11:43:48;;;;;;;7.97;5.92;;;;;;;;;;1687128;84;21117;-62
2022/08/10 11:46:16;;;;;;;3.83;3.30;;;;;;;;;;1696911;83;21033;-63
2022/08/10 11:48:44;;;;;;;4.95;3.35;;;;;;;;;;1697397;84;21029;-63
2022/08/10 11:51:12;;;;;;;4.75;3.37;;;;;;;;;;1693741;84;21080;-63
2022/08/10 11:53:40;;;;;;;4.35;3.08;;;;;;;;;;1696089;83;20975;-63
2022/08/10 11:56:06;;;;;;;4.22;3.30;;;;;;;;;;1758566;81;21553;-63
2022/08/10 12:01:19;;;;;;;4.37;2.90;;;;;;;;;;1747487;81;21528;-63
2022/08/10 12:03:45;;;;;;;4.33;2.67;;;;;;;;;;1753734;81;21059;-63
2022/08/10 12:06:13;;;;;;;4.08;3.15;;;;;;;;;;1749332;81;21021;-63
2022/08/10 12:08:40;;;;;;;4.10;3.33;;;;;;;;;;1751792;81;21036;-63
2022/08/10 12:11:08;;;;;;;4.78;3.37;;;;;;;;;;1752813;81;21696;-63
2022/08/10 12:13:36;;;;;;;3.83;3.20;;;;;;;;;;1748604;80;21092;-63
2022/08/10 12:16:04;;;;;;;3.60;3.08;;;;;;;;;;1745149;81;21045;-63
2022/08/10 12:18:44;;;;;;;4.00;3.40;;;;;;;;;;1748317;81;21055;-63
2022/08/10 12:21:11;;;;;;;5.08;2.98;;;;;;;;;;1748138;81;21495;-63
2022/08/10 12:23:54;;;;;;;4.95;3.15;;;;;;;;;;1752504;81;21020;-63
2022/08/10 12:26:27;;;;;;;3.15;2.83;;;;;;;;;;1744670;81;21473;-66
2022/08/10 12:29:01;;;;;;;8.75;6.17;;;;;;;;;;1730084;81;21037;-62
2022/08/10 12:31:29;;;;;;;14.23;9.73;;;;;;;;;;1755449;81;21083;-63
2022/08/10 12:34:14;;;;;;;5.85;3.95;;;;;;;;;;1745819;80;21103;-63
2022/08/10 12:36:41;;;;;;;4.55;3.25;;;;;;;;;;1750072;81;21084;-62
2022/08/10 12:39:12;;;;;;;4.67;2.92;;;;;;;;;;1753905;81;21086;-63
2022/08/10 12:41:40;;;;;;;4.90;3.10;;;;;;;;;;1741875;80;21497;-61
2022/08/10 12:44:11;;;;;;;3.77;2.80;;;;;;;;;;1750317;81;21017;-62
2022/08/10 12:46:49;;;;;;;3.37;2.58;;;;;;;;;;1738280;81;21085;-62
2022/08/10 12:49:33;;;;;;;3.92;3.08;;;;;;;;;;1750533;80;21040;-61
2022/08/10 12:52:20;;;;;;;9.75;5.85;;;;;;;;;;1697780;83;20984;-62
2022/08/10 12:54:46;;;;;;;5.20;3.90;;;;;;;;;;1736513;81;21050;-62
2022/08/10 12:57:20;;;;;;;5.30;3.27;;;;;;;;;;1755798;81;21057;-62
2022/08/10 12:59:47;;;;;;;4.30;3.10;;;;;;;;;;1755497;81;21104;-61
2022/08/10 13:02:15;;;;;;;7.70;3.60;;;;;;;;;;1749324;81;21031;-61
2022/08/10 13:04:41;;;;;;;2.98;2.67;;;;;;;;;;1757218;81;21079;-62
2022/08/10 13:07:08;;;;;;;3.80;3.10;;;;;;;;;;1759107;81;21028;-62
2022/08/10 13:09:35;;;;;;;4.92;3.80;;;;;;;;;;1757952;81;21107;-62
2022/08/10 13:12:03;;;;;;;5.25;3.62;;;;;;;;;;1751564;80;21059;-63
2022/08/10 13:14:46;;;;;;;4.90;3.22;;;;;;;;;;1751265;80;21031;-62
2022/08/10 13:17:13;;;;;;;5.15;3.35;;;;;;;;;;1753413;81;21074;-61
2022/08/10 13:19:40;;;;;;;5.92;3.77;;;;;;;;;;1751617;81;21093;-62
2022/08/10 13:22:06;;;;;;;6.35;3.67;;;;;;;;;;1761811;81;21473;-62
2022/08/10 13:24:34;;;;;;;5.05;4.20;;;;;;;;;;1762713;81;21006;-62
2022/08/10 13:27:02;;;;;;;5.85;4.22;;;;;;;;;;1756577;81;21037;-62
2022/08/10 13:29:29;;;;;;;5.85;3.50;;;;;;;;;;1752354;81;22078;-62
2022/08/10 13:31:55;;;;;;;5.40;4.30;;;;;;;;;;1753233;81;21053;-62
2022/08/10 13:34:25;;;;;;;5.67;3.98;;;;;;;;;;1760593;81;21084;-62
2022/08/10 13:36:55;;;;;;;5.97;4.25;;;;;;;;;;1772621;81;21060;-62
2022/08/10 13:39:21;;;;;;;5.70;4.15;;;;;;;;;;1756570;81;21039;-62
2022/08/10 13:41:48;;;;;;;6.35;4.33;;;;;;;;;;1763179;81;21005;-61
2022/08/10 13:44:14;;;;;;;6.12;4.03;;;;;;;;;;1761211;81;21092;-62
2022/08/10 13:46:41;;;;;;;7.92;4.55;;;;;;;;;;1758762;81;21013;-61
2022/08/10 13:49:07;;;;;;;5.50;4.10;;;;;;;;;;1753815;81;21063;-62
2022/08/10 13:51:35;;;;;;;5.58;3.83;;;;;;;;;;1754390;81;21049;-62
2022/08/10 13:54:01;;;;;;;5.05;4.00;;;;;;;;;;1758210;81;20996;-61
2022/08/10 13:56:27;;;;;;;6.25;3.75;;;;;;;;;;1769458;80;21037;-62
2022/08/10 13:58:53;;;;;;;5.22;3.90;;;;;;;;;;1772628;80;21057;-61
2022/08/10 14:01:21;;;;;;;5.25;3.80;;;;;;;;;;1769229;80;21467;-60
2022/08/10 14:03:47;;;;;;;8.53;3.70;;;;;;;;;;1764259;80;21043;-60
2022/08/10 14:06:14;;;;;;;5.37;4.12;;;;;;;;;;1767806;80;21001;-60
2022/08/10 14:08:42;;;;;;;6.58;3.90;;;;;;;;;;1758446;80;21001;-61
2022/08/10 14:11:10;;;;;;;5.37;3.85;;;;;;;;;;1755818;81;21016;-62
2022/08/10 14:13:37;;;;;;;5.17;3.42;;;;;;;;;;1762599;80;20989;-61
2022/08/10 14:16:07;;;;;;;4.97;3.15;;;;;;;;;;1763731;80;21056;-61
2022/08/10 14:18:34;;;;;;;4.08;3.33;;;;;;;;;;1787656;80;21081;-60
2022/08/10 14:21:00;;;;;;;4.78;3.50;;;;;;;;;;1788402;80;21067;-63
2022/08/10 14:23:27;;;;;;;3.77;3.27;;;;;;;;;;1767246;80;21032;-62
2022/08/10 14:26:01;;;;;;;5.92;3.37;;;;;;;;;;1755028;80;21187;-62
2022/08/10 14:28:31;;;;;;;5.03;3.17;;;;;;;;;;1772696;80;21084;-62
2022/08/10 14:31:02;;;;;;;5.97;3.47;;;;;;;;;;1761523;80;21043;-62
2022/08/10 14:33:28;;;;;;;3.35;2.72;;;;;;;;;;1761362;80;21542;-62
2022/08/10 14:35:54;;;;;;;5.78;3.30;;;;;;;;;;1755561;80;21017;-63
2022/08/10 14:38:21;;;;;;;4.28;3.30;;;;;;;;;;1757476;80;21048;-62
2022/08/10 14:40:49;;;;;;;5.30;3.05;;;;;;;;;;1757205;81;21492;-62
2022/08/10 14:43:18;;;;;;;5.70;3.08;;;;;;;;;;1758321;80;21060;-63
2022/08/10 14:45:45;;;;;;;7.03;3.50;;;;;;;;;;1761057;80;21044;-62
2022/08/10 14:48:19;;;;;;;5.20;3.27;;;;;;;;;;1765637;80;21536;-63
2022/08/10 14:50:45;;;;;;;6.12;3.45;;;;;;;;;;1758469;80;21052;-61
2022/08/10 14:53:16;;;;;;;30.45;25.40;;;;;;;;;;1755799;81;21066;-61
2022/08/10 14:55:47;;;;;;;32.75;29.27;;;;;;;;;;1761937;80;21085;-60
2022/08/10 14:58:18;;;;;;;8.50;7.55;;;;;;;;;;1740440;80;21662;-63
2022/08/10 15:00:44;;;;;;;4.67;3.50;;;;;;;;;;1748838;80;20978;-61
2022/08/10 15:03:13;;;;;;;5.30;3.33;;;;;;;;;;1749821;80;21079;-62
2022/08/10 15:05:39;;;;;;;4.75;2.98;;;;;;;;;;1748230;80;21009;-62